sensor_id;sensor_type;location;lat;lon;timestamp;temperature;humidity
53776;DHT22;44276;49.534;6.378;2022-09-12T00:00:51;10.20;99.90
53776;DHT22;44276;49.534;6.378;2022-09-12T00:03:31;10.10;99.90
53776;DHT22;44276;49.534;6.378;2022-09-12T00:05:59;10.10;99.90
53776;DHT22;44276;49.534;6.378;2022-09-12T00:08:27;10.10;99.90
53776;DHT22;44276;49.534;6.378;2022-09-12T00:10:55;10.10;99.90
53776;DHT22;44276;49.534;6.378;2022-09-12T00:13:23;10.00;99.90
53776;DHT22;44276;49.534;6.378;2022-09-12T00:15:51;9.90;99.90
53776;DHT22;44276;49.534;6.378;2022-09-12T00:18:20;10.00;99.90
53776;DHT22;44276;49.534;6.378;2022-09-12T00:20:48;10.10;99.90
53776;DHT22;44276;49.534;6.378;2022-09-12T00:23:16;10.10;99.90
53776;DHT22;44276;49.534;6.378;2022-09-12T00:25:44;10.10;99.90
53776;DHT22;44276;49.534;6.378;2022-09-12T00:28:15;10.20;99.90
53776;DHT22;44276;49.534;6.378;2022-09-12T00:30:45;10.10;99.90
53776;DHT22;44276;49.534;6.378;2022-09-12T00:33:14;10.00;99.90
53776;DHT22;44276;49.534;6.378;2022-09-12T00:35:45;9.90;99.90
53776;DHT22;44276;49.534;6.378;2022-09-12T00:38:15;9.90;99.90
53776;DHT22;44276;49.534;6.378;2022-09-12T00:40:43;9.80;99.90
53776;DHT22;44276;49.534;6.378;2022-09-12T00:43:12;9.80;99.90
53776;DHT22;44276;49.534;6.378;2022-09-12T00:45:41;9.80;99.90
53776;DHT22;44276;49.534;6.378;2022-09-12T00:48:15;9.90;99.90
53776;DHT22;44276;49.534;6.378;2022-09-12T00:50:48;9.80;99.90
53776;DHT22;44276;49.534;6.378;2022-09-12T00:53:16;9.70;99.90
53776;DHT22;44276;49.534;6.378;2022-09-12T00:55:45;9.80;99.90
53776;DHT22;44276;49.534;6.378;2022-09-12T00:58:17;9.80;99.90
53776;DHT22;44276;49.534;6.378;2022-09-12T01:00:49;9.80;99.90
53776;DHT22;44276;49.534;6.378;2022-09-12T01:03:18;9.70;99.90
53776;DHT22;44276;49.534;6.378;2022-09-12T01:05:51;9.70;99.90
53776;DHT22;44276;49.534;6.378;2022-09-12T01:08:26;9.70;99.90
53776;DHT22;44276;49.534;6.378;2022-09-12T01:10:55;9.90;99.90
53776;DHT22;44276;49.534;6.378;2022-09-12T01:13:24;9.80;99.90
53776;DHT22;44276;49.534;6.378;2022-09-12T01:15:52;9.80;99.90
53776;DHT22;44276;49.534;6.378;2022-09-12T01:18:23;9.70;99.90
53776;DHT22;44276;49.534;6.378;2022-09-12T01:36:15;9.70;99.90
53776;DHT22;44276;49.534;6.378;2022-09-12T01:38:55;9.80;99.90
53776;DHT22;44276;49.534;6.378;2022-09-12T01:41:27;9.80;99.90
53776;DHT22;44276;49.534;6.378;2022-09-12T01:44:03;9.90;99.90
53776;DHT22;44276;49.534;6.378;2022-09-12T01:46:43;10.00;99.90
53776;DHT22;44276;49.534;6.378;2022-09-12T01:49:16;10.20;99.90
53776;DHT22;44276;49.534;6.378;2022-09-12T01:51:50;10.20;99.90
53776;DHT22;44276;49.534;6.378;2022-09-12T01:54:24;10.20;99.90
53776;DHT22;44276;49.534;6.378;2022-09-12T01:56:58;10.20;99.90
53776;DHT22;44276;49.534;6.378;2022-09-12T01:59:32;10.20;99.90
53776;DHT22;44276;49.534;6.378;2022-09-12T02:02:04;10.30;99.90
53776;DHT22;44276;49.534;6.378;2022-09-12T02:04:35;10.40;99.90
53776;DHT22;44276;49.534;6.378;2022-09-12T02:07:15;10.40;99.90
53776;DHT22;44276;49.534;6.378;2022-09-12T02:09:48;10.60;99.90
53776;DHT22;44276;49.534;6.378;2022-09-12T02:12:22;10.60;99.90
53776;DHT22;44276;49.534;6.378;2022-09-12T02:14:54;10.80;99.90
53776;DHT22;44276;49.534;6.378;2022-09-12T02:17:29;10.90;99.90
53776;DHT22;44276;49.534;6.378;2022-09-12T02:20:04;11.00;99.90
53776;DHT22;44276;49.534;6.378;2022-09-12T02:22:56;11.00;99.90
53776;DHT22;44276;49.534;6.378;2022-09-12T02:25:26;11.10;99.90
53776;DHT22;44276;49.534;6.378;2022-09-12T02:27:58;11.10;99.90
53776;DHT22;44276;49.534;6.378;2022-09-12T02:30:30;11.20;99.90
53776;DHT22;44276;49.534;6.378;2022-09-12T02:33:06;11.20;99.90
53776;DHT22;44276;49.534;6.378;2022-09-12T02:35:42;11.30;99.90
53776;DHT22;44276;49.534;6.378;2022-09-12T02:38:16;11.30;99.90
53776;DHT22;44276;49.534;6.378;2022-09-12T02:40:51;11.30;99.90
53776;DHT22;44276;49.534;6.378;2022-09-12T02:43:19;11.30;99.90
53776;DHT22;44276;49.534;6.378;2022-09-12T02:45:47;11.40;99.90
53776;DHT22;44276;49.534;6.378;2022-09-12T02:48:18;11.40;99.90
53776;DHT22;44276;49.534;6.378;2022-09-12T02:50:49;11.40;99.90
53776;DHT22;44276;49.534;6.378;2022-09-12T02:53:17;11.40;99.90
53776;DHT22;44276;49.534;6.378;2022-09-12T02:55:46;11.50;99.90
53776;DHT22;44276;49.534;6.378;2022-09-12T02:58:15;11.50;99.90
53776;DHT22;44276;49.534;6.378;2022-09-12T03:00:46;11.60;99.90
53776;DHT22;44276;49.534;6.378;2022-09-12T03:03:25;11.60;99.90
53776;DHT22;44276;49.534;6.378;2022-09-12T03:06:11;11.70;99.90
53776;DHT22;44276;49.534;6.378;2022-09-12T03:08:57;11.70;99.90
53776;DHT22;44276;49.534;6.378;2022-09-12T03:11:37;11.80;99.90
53776;DHT22;44276;49.534;6.378;2022-09-12T03:14:40;11.70;99.90
53776;DHT22;44276;49.534;6.378;2022-09-12T03:17:28;11.70;99.90
53776;DHT22;44276;49.534;6.378;2022-09-12T03:20:08;11.70;99.90
53776;DHT22;44276;49.534;6.378;2022-09-12T03:22:41;11.70;99.90
53776;DHT22;44276;49.534;6.378;2022-09-12T03:25:17;11.70;99.90
53776;DHT22;44276;49.534;6.378;2022-09-12T03:27:51;11.70;99.90
53776;DHT22;44276;49.534;6.378;2022-09-12T03:30:24;11.70;99.90
53776;DHT22;44276;49.534;6.378;2022-09-12T03:32:53;11.70;99.90
53776;DHT22;44276;49.534;6.378;2022-09-12T03:35:23;11.70;99.90
53776;DHT22;44276;49.534;6.378;2022-09-12T03:37:51;11.70;99.90
53776;DHT22;44276;49.534;6.378;2022-09-12T03:40:19;11.70;99.90
53776;DHT22;44276;49.534;6.378;2022-09-12T03:42:47;11.80;99.90
53776;DHT22;44276;49.534;6.378;2022-09-12T03:45:15;11.70;99.90
53776;DHT22;44276;49.534;6.378;2022-09-12T03:47:44;11.80;99.90
53776;DHT22;44276;49.534;6.378;2022-09-12T03:50:11;11.80;99.90
53776;DHT22;44276;49.534;6.378;2022-09-12T03:52:41;11.80;99.90
53776;DHT22;44276;49.534;6.378;2022-09-12T03:55:08;11.80;99.90
53776;DHT22;44276;49.534;6.378;2022-09-12T03:57:37;11.80;99.90
53776;DHT22;44276;49.534;6.378;2022-09-12T04:00:05;11.90;99.90
53776;DHT22;44276;49.534;6.378;2022-09-12T04:02:34;11.90;99.90
53776;DHT22;44276;49.534;6.378;2022-09-12T04:05:02;11.90;99.90
53776;DHT22;44276;49.534;6.378;2022-09-12T04:07:31;11.90;99.90
53776;DHT22;44276;49.534;6.378;2022-09-12T04:10:00;11.90;99.90
53776;DHT22;44276;49.534;6.378;2022-09-12T04:12:29;11.90;99.90
53776;DHT22;44276;49.534;6.378;2022-09-12T04:14:57;12.00;99.90
53776;DHT22;44276;49.534;6.378;2022-09-12T04:17:25;12.00;99.90
53776;DHT22;44276;49.534;6.378;2022-09-12T04:19:53;12.00;99.90
53776;DHT22;44276;49.534;6.378;2022-09-12T04:22:20;12.00;99.90
53776;DHT22;44276;49.534;6.378;2022-09-12T04:24:48;12.00;99.90
53776;DHT22;44276;49.534;6.378;2022-09-12T04:27:18;12.00;99.90
53776;DHT22;44276;49.534;6.378;2022-09-12T04:29:45;12.00;99.90
53776;DHT22;44276;49.534;6.378;2022-09-12T04:32:13;12.00;99.90
53776;DHT22;44276;49.534;6.378;2022-09-12T04:34:41;11.80;99.90
53776;DHT22;44276;49.534;6.378;2022-09-12T04:37:09;11.80;99.90
53776;DHT22;44276;49.534;6.378;2022-09-12T04:39:38;11.70;99.90
53776;DHT22;44276;49.534;6.378;2022-09-12T04:42:06;11.70;99.90
53776;DHT22;44276;49.534;6.378;2022-09-12T04:44:36;11.60;99.90
53776;DHT22;44276;49.534;6.378;2022-09-12T04:47:04;11.70;99.90
53776;DHT22;44276;49.534;6.378;2022-09-12T04:49:32;11.70;99.90
53776;DHT22;44276;49.534;6.378;2022-09-12T04:52:00;11.80;99.90
53776;DHT22;44276;49.534;6.378;2022-09-12T04:54:28;11.80;99.90
53776;DHT22;44276;49.534;6.378;2022-09-12T04:56:56;11.80;99.90
53776;DHT22;44276;49.534;6.378;2022-09-12T04:59:25;11.90;99.90
53776;DHT22;44276;49.534;6.378;2022-09-12T05:01:54;12.00;99.90
53776;DHT22;44276;49.534;6.378;2022-09-12T05:04:22;11.90;99.90
53776;DHT22;44276;49.534;6.378;2022-09-12T05:06:50;11.90;99.90
53776;DHT22;44276;49.534;6.378;2022-09-12T05:09:18;12.00;99.90
53776;DHT22;44276;49.534;6.378;2022-09-12T05:11:46;12.00;99.90
53776;DHT22;44276;49.534;6.378;2022-09-12T05:14:31;12.00;99.90
53776;DHT22;44276;49.534;6.378;2022-09-12T05:17:01;12.10;99.90
53776;DHT22;44276;49.534;6.378;2022-09-12T05:19:31;12.10;99.90
53776;DHT22;44276;49.534;6.378;2022-09-12T05:21:59;12.10;99.90
53776;DHT22;44276;49.534;6.378;2022-09-12T05:24:27;12.10;99.90
53776;DHT22;44276;49.534;6.378;2022-09-12T05:26:55;12.10;99.90
53776;DHT22;44276;49.534;6.378;2022-09-12T05:29:23;12.10;99.90
53776;DHT22;44276;49.534;6.378;2022-09-12T05:31:52;12.10;99.90
53776;DHT22;44276;49.534;6.378;2022-09-12T05:34:21;12.10;99.90
53776;DHT22;44276;49.534;6.378;2022-09-12T05:36:49;12.20;99.90
53776;DHT22;44276;49.534;6.378;2022-09-12T05:39:17;12.30;99.90
53776;DHT22;44276;49.534;6.378;2022-09-12T05:41:45;12.20;99.90
53776;DHT22;44276;49.534;6.378;2022-09-12T05:44:13;12.30;99.90
53776;DHT22;44276;49.534;6.378;2022-09-12T05:46:42;12.20;99.90
53776;DHT22;44276;49.534;6.378;2022-09-12T05:49:12;12.20;99.90
53776;DHT22;44276;49.534;6.378;2022-09-12T05:51:42;12.20;99.90
53776;DHT22;44276;49.534;6.378;2022-09-12T05:54:12;12.20;99.90
53776;DHT22;44276;49.534;6.378;2022-09-12T05:56:42;12.20;99.90
53776;DHT22;44276;49.534;6.378;2022-09-12T05:59:11;12.30;99.90
53776;DHT22;44276;49.534;6.378;2022-09-12T06:01:41;12.40;99.90
53776;DHT22;44276;49.534;6.378;2022-09-12T06:04:10;12.40;99.90
53776;DHT22;44276;49.534;6.378;2022-09-12T06:06:38;12.60;99.90
53776;DHT22;44276;49.534;6.378;2022-09-12T06:09:10;12.70;99.90
53776;DHT22;44276;49.534;6.378;2022-09-12T06:11:39;12.70;99.90
53776;DHT22;44276;49.534;6.378;2022-09-12T06:14:07;12.80;99.90
53776;DHT22;44276;49.534;6.378;2022-09-12T06:16:36;12.80;99.90
53776;DHT22;44276;49.534;6.378;2022-09-12T06:19:05;12.80;99.90
53776;DHT22;44276;49.534;6.378;2022-09-12T06:21:36;12.80;99.90
53776;DHT22;44276;49.534;6.378;2022-09-12T06:24:05;12.70;99.90
53776;DHT22;44276;49.534;6.378;2022-09-12T06:26:35;12.70;99.90
53776;DHT22;44276;49.534;6.378;2022-09-12T06:29:03;12.60;99.90
53776;DHT22;44276;49.534;6.378;2022-09-12T06:31:32;12.80;99.90
53776;DHT22;44276;49.534;6.378;2022-09-12T06:34:02;12.80;99.90
53776;DHT22;44276;49.534;6.378;2022-09-12T06:36:32;12.90;99.90
53776;DHT22;44276;49.534;6.378;2022-09-12T06:39:04;12.90;99.90
53776;DHT22;44276;49.534;6.378;2022-09-12T06:41:35;13.00;99.90
53776;DHT22;44276;49.534;6.378;2022-09-12T06:44:09;13.10;99.90
53776;DHT22;44276;49.534;6.378;2022-09-12T06:46:38;13.20;99.90
53776;DHT22;44276;49.534;6.378;2022-09-12T06:49:06;13.40;99.90
53776;DHT22;44276;49.534;6.378;2022-09-12T06:51:35;13.70;99.90
53776;DHT22;44276;49.534;6.378;2022-09-12T06:54:03;13.80;99.90
53776;DHT22;44276;49.534;6.378;2022-09-12T06:56:31;14.00;99.90
53776;DHT22;44276;49.534;6.378;2022-09-12T06:59:01;14.00;99.90
53776;DHT22;44276;49.534;6.378;2022-09-12T07:01:30;14.10;99.90
53776;DHT22;44276;49.534;6.378;2022-09-12T07:03:59;14.10;99.90
53776;DHT22;44276;49.534;6.378;2022-09-12T07:06:29;14.10;99.90
53776;DHT22;44276;49.534;6.378;2022-09-12T07:09:02;14.20;99.90
53776;DHT22;44276;49.534;6.378;2022-09-12T07:11:32;14.40;99.90
53776;DHT22;44276;49.534;6.378;2022-09-12T07:14:05;14.60;99.90
53776;DHT22;44276;49.534;6.378;2022-09-12T07:16:35;14.60;99.90
53776;DHT22;44276;49.534;6.378;2022-09-12T07:19:04;14.80;99.90
53776;DHT22;44276;49.534;6.378;2022-09-12T07:21:34;14.90;99.90
53776;DHT22;44276;49.534;6.378;2022-09-12T07:24:06;15.30;99.90
53776;DHT22;44276;49.534;6.378;2022-09-12T07:26:38;15.90;99.90
53776;DHT22;44276;49.534;6.378;2022-09-12T07:29:12;16.10;99.90
53776;DHT22;44276;49.534;6.378;2022-09-12T07:32:03;16.10;99.90
53776;DHT22;44276;49.534;6.378;2022-09-12T07:34:32;16.20;99.90
53776;DHT22;44276;49.534;6.378;2022-09-12T07:37:00;16.10;99.90
53776;DHT22;44276;49.534;6.378;2022-09-12T07:39:28;16.20;99.90
53776;DHT22;44276;49.534;6.378;2022-09-12T07:41:58;16.20;99.90
53776;DHT22;44276;49.534;6.378;2022-09-12T07:44:28;16.40;99.90
53776;DHT22;44276;49.534;6.378;2022-09-12T07:46:56;16.50;99.90
53776;DHT22;44276;49.534;6.378;2022-09-12T07:49:24;16.50;99.90
53776;DHT22;44276;49.534;6.378;2022-09-12T07:51:52;16.80;99.90
53776;DHT22;44276;49.534;6.378;2022-09-12T07:54:20;17.10;99.90
53776;DHT22;44276;49.534;6.378;2022-09-12T07:56:48;17.70;99.90
53776;DHT22;44276;49.534;6.378;2022-09-12T07:59:17;18.00;99.90
53776;DHT22;44276;49.534;6.378;2022-09-12T08:02:08;18.10;99.90
53776;DHT22;44276;49.534;6.378;2022-09-12T08:04:42;18.30;99.90
53776;DHT22;44276;49.534;6.378;2022-09-12T08:07:10;19.00;99.90
53776;DHT22;44276;49.534;6.378;2022-09-12T08:09:39;19.40;99.90
53776;DHT22;44276;49.534;6.378;2022-09-12T08:12:07;19.90;96.30
53776;DHT22;44276;49.534;6.378;2022-09-12T08:14:35;19.80;95.70
53776;DHT22;44276;49.534;6.378;2022-09-12T08:17:03;19.90;94.60
53776;DHT22;44276;49.534;6.378;2022-09-12T08:19:33;21.50;85.70
53776;DHT22;44276;49.534;6.378;2022-09-12T08:22:01;22.90;66.30
53776;DHT22;44276;49.534;6.378;2022-09-12T08:24:29;24.20;57.10
53776;DHT22;44276;49.534;6.378;2022-09-12T08:26:59;25.00;47.30
53776;DHT22;44276;49.534;6.378;2022-09-12T08:29:26;25.50;41.70
53776;DHT22;44276;49.534;6.378;2022-09-12T08:31:55;26.20;39.20
53776;DHT22;44276;49.534;6.378;2022-09-12T08:34:23;26.00;37.20
53776;DHT22;44276;49.534;6.378;2022-09-12T08:36:53;26.20;36.10
53776;DHT22;44276;49.534;6.378;2022-09-12T08:39:21;26.70;35.20
53776;DHT22;44276;49.534;6.378;2022-09-12T08:41:54;27.30;33.40
53776;DHT22;44276;49.534;6.378;2022-09-12T08:47:32;26.90;32.80
53776;DHT22;44276;49.534;6.378;2022-09-12T08:50:09;27.30;32.80
53776;DHT22;44276;49.534;6.378;2022-09-12T08:52:48;27.20;32.50
53776;DHT22;44276;49.534;6.378;2022-09-12T08:55:25;28.50;29.60
53776;DHT22;44276;49.534;6.378;2022-09-12T08:57:57;29.10;28.00
53776;DHT22;44276;49.534;6.378;2022-09-12T09:00:37;28.70;28.20
53776;DHT22;44276;49.534;6.378;2022-09-12T09:03:46;29.10;27.80
53776;DHT22;44276;49.534;6.378;2022-09-12T09:06:31;29.80;26.90
53776;DHT22;44276;49.534;6.378;2022-09-12T09:09:13;30.90;25.60
53776;DHT22;44276;49.534;6.378;2022-09-12T09:11:57;30.60;24.70
53776;DHT22;44276;49.534;6.378;2022-09-12T09:19:24;30.00;25.00
53776;DHT22;44276;49.534;6.378;2022-09-12T09:25:35;31.10;23.80
53776;DHT22;44276;49.534;6.378;2022-09-12T09:33:20;33.10;21.00
53776;DHT22;44276;49.534;6.378;2022-09-12T09:36:58;32.40;21.50
53776;DHT22;44276;49.534;6.378;2022-09-12T09:39:37;31.40;22.70
53776;DHT22;44276;49.534;6.378;2022-09-12T09:42:22;31.90;21.90
53776;DHT22;44276;49.534;6.378;2022-09-12T09:45:10;31.80;22.20
53776;DHT22;44276;49.534;6.378;2022-09-12T09:47:43;32.10;21.80
53776;DHT22;44276;49.534;6.378;2022-09-12T09:50:13;32.60;21.20
53776;DHT22;44276;49.534;6.378;2022-09-12T09:52:44;33.80;20.40
53776;DHT22;44276;49.534;6.378;2022-09-12T09:55:19;34.50;19.70
53776;DHT22;44276;49.534;6.378;2022-09-12T09:58:08;34.10;20.20
53776;DHT22;44276;49.534;6.378;2022-09-12T10:00:38;33.30;20.60
53776;DHT22;44276;49.534;6.378;2022-09-12T10:06:22;32.70;21.30
53776;DHT22;44276;49.534;6.378;2022-09-12T10:09:03;32.90;20.60
53776;DHT22;44276;49.534;6.378;2022-09-12T10:11:34;33.40;20.70
53776;DHT22;44276;49.534;6.378;2022-09-12T10:14:22;34.20;18.80
53776;DHT22;44276;49.534;6.378;2022-09-12T10:16:59;33.00;20.20
53776;DHT22;44276;49.534;6.378;2022-09-12T10:19:33;32.90;21.20
53776;DHT22;44276;49.534;6.378;2022-09-12T10:25:30;33.40;20.70
53776;DHT22;44276;49.534;6.378;2022-09-12T10:28:02;33.40;19.70
53776;DHT22;44276;49.534;6.378;2022-09-12T10:30:51;33.40;20.00
53776;DHT22;44276;49.534;6.378;2022-09-12T10:33:22;34.30;18.70
53776;DHT22;44276;49.534;6.378;2022-09-12T10:35:53;34.90;19.00
53776;DHT22;44276;49.534;6.378;2022-09-12T10:38:31;35.70;17.10
53776;DHT22;44276;49.534;6.378;2022-09-12T10:41:00;35.60;15.60
53776;DHT22;44276;49.534;6.378;2022-09-12T10:43:34;35.10;15.90
53776;DHT22;44276;49.534;6.378;2022-09-12T10:46:26;35.00;17.30
53776;DHT22;44276;49.534;6.378;2022-09-12T10:51:53;34.00;18.60
53776;DHT22;44276;49.534;6.378;2022-09-12T10:54:26;34.20;18.40
53776;DHT22;44276;49.534;6.378;2022-09-12T11:00:09;34.30;17.80
53776;DHT22;44276;49.534;6.378;2022-09-12T11:02:53;33.40;18.20
53776;DHT22;44276;49.534;6.378;2022-09-12T11:05:31;33.30;18.50
53776;DHT22;44276;49.534;6.378;2022-09-12T11:08:08;34.10;17.70
53776;DHT22;44276;49.534;6.378;2022-09-12T11:10:44;33.90;17.50
53776;DHT22;44276;49.534;6.378;2022-09-12T11:13:23;33.30;17.20
53776;DHT22;44276;49.534;6.378;2022-09-12T11:16:00;33.10;16.60
53776;DHT22;44276;49.534;6.378;2022-09-12T11:18:43;33.40;16.20
53776;DHT22;44276;49.534;6.378;2022-09-12T11:21:25;33.10;14.80
53776;DHT22;44276;49.534;6.378;2022-09-12T11:24:09;32.90;15.60
53776;DHT22;44276;49.534;6.378;2022-09-12T11:26:58;32.90;15.80
53776;DHT22;44276;49.534;6.378;2022-09-12T11:29:39;33.30;15.20
53776;DHT22;44276;49.534;6.378;2022-09-12T11:35:32;32.50;15.50
53776;DHT22;44276;49.534;6.378;2022-09-12T11:41:02;33.60;14.20
53776;DHT22;44276;49.534;6.378;2022-09-12T11:43:35;34.40;13.40
53776;DHT22;44276;49.534;6.378;2022-09-12T11:46:09;34.30;13.00
53776;DHT22;44276;49.534;6.378;2022-09-12T11:48:45;34.20;13.00
53776;DHT22;44276;49.534;6.378;2022-09-12T11:51:22;34.00;13.00
53776;DHT22;44276;49.534;6.378;2022-09-12T11:54:03;33.80;13.30
53776;DHT22;44276;49.534;6.378;2022-09-12T11:56:39;34.60;13.50
53776;DHT22;44276;49.534;6.378;2022-09-12T11:59:13;35.20;12.60
53776;DHT22;44276;49.534;6.378;2022-09-12T12:01:47;34.50;12.10
53776;DHT22;44276;49.534;6.378;2022-09-12T12:04:19;33.90;12.30
53776;DHT22;44276;49.534;6.378;2022-09-12T12:06:55;33.10;12.80
53776;DHT22;44276;49.534;6.378;2022-09-12T12:09:29;32.70;12.80
53776;DHT22;44276;49.534;6.378;2022-09-12T12:11:58;33.30;12.40
53776;DHT22;44276;49.534;6.378;2022-09-12T12:14:35;33.30;13.10
53776;DHT22;44276;49.534;6.378;2022-09-12T12:17:12;33.80;12.10
53776;DHT22;44276;49.534;6.378;2022-09-12T12:19:42;33.80;13.50
53776;DHT22;44276;49.534;6.378;2022-09-12T12:22:15;32.80;13.90
53776;DHT22;44276;49.534;6.378;2022-09-12T12:24:53;32.40;13.20
53776;DHT22;44276;49.534;6.378;2022-09-12T12:27:53;32.40;14.30
53776;DHT22;44276;49.534;6.378;2022-09-12T12:36:33;31.10;14.10
53776;DHT22;44276;49.534;6.378;2022-09-12T12:48:42;31.80;13.60
53776;DHT22;44276;49.534;6.378;2022-09-12T12:51:26;31.80;12.40
53776;DHT22;44276;49.534;6.378;2022-09-12T12:53:58;32.30;13.10
53776;DHT22;44276;49.534;6.378;2022-09-12T12:56:34;32.70;12.80
53776;DHT22;44276;49.534;6.378;2022-09-12T12:59:14;32.80;11.70
53776;DHT22;44276;49.534;6.378;2022-09-12T13:01:46;32.40;12.70
53776;DHT22;44276;49.534;6.378;2022-09-12T13:04:23;32.70;13.00
53776;DHT22;44276;49.534;6.378;2022-09-12T13:06:57;32.70;12.70
53776;DHT22;44276;49.534;6.378;2022-09-12T13:09:35;32.40;12.90
53776;DHT22;44276;49.534;6.378;2022-09-12T13:12:05;32.70;12.10
53776;DHT22;44276;49.534;6.378;2022-09-12T13:14:46;32.60;12.70
53776;DHT22;44276;49.534;6.378;2022-09-12T13:17:23;32.20;12.50
53776;DHT22;44276;49.534;6.378;2022-09-12T13:20:02;32.90;12.00
53776;DHT22;44276;49.534;6.378;2022-09-12T13:22:53;33.30;11.90
53776;DHT22;44276;49.534;6.378;2022-09-12T13:25:26;33.70;11.80
53776;DHT22;44276;49.534;6.378;2022-09-12T13:27:56;33.60;12.20
53776;DHT22;44276;49.534;6.378;2022-09-12T13:30:30;32.90;13.00
53776;DHT22;44276;49.534;6.378;2022-09-12T13:33:08;32.50;13.00
53776;DHT22;44276;49.534;6.378;2022-09-12T13:35:52;32.30;12.40
53776;DHT22;44276;49.534;6.378;2022-09-12T13:38:33;31.80;13.40
53776;DHT22;44276;49.534;6.378;2022-09-12T13:41:15;32.40;13.20
53776;DHT22;44276;49.534;6.378;2022-09-12T13:43:54;31.80;13.00
53776;DHT22;44276;49.534;6.378;2022-09-12T13:46:24;31.10;14.30
53776;DHT22;44276;49.534;6.378;2022-09-12T13:48:56;31.60;14.20
53776;DHT22;44276;49.534;6.378;2022-09-12T13:51:26;32.30;13.50
53776;DHT22;44276;49.534;6.378;2022-09-12T13:53:58;33.30;12.60
53776;DHT22;44276;49.534;6.378;2022-09-12T13:56:29;33.80;12.70
53776;DHT22;44276;49.534;6.378;2022-09-12T13:58:57;34.30;11.80
53776;DHT22;44276;49.534;6.378;2022-09-12T14:01:36;34.20;11.80
53776;DHT22;44276;49.534;6.378;2022-09-12T14:04:09;34.10;12.40
53776;DHT22;44276;49.534;6.378;2022-09-12T14:07:02;33.60;12.10
53776;DHT22;44276;49.534;6.378;2022-09-12T14:09:38;33.80;11.60
53776;DHT22;44276;49.534;6.378;2022-09-12T14:12:14;33.60;11.70
53776;DHT22;44276;49.534;6.378;2022-09-12T14:14:50;32.90;12.50
53776;DHT22;44276;49.534;6.378;2022-09-12T14:17:23;32.20;12.20
53776;DHT22;44276;49.534;6.378;2022-09-12T14:19:55;32.00;13.10
53776;DHT22;44276;49.534;6.378;2022-09-12T14:22:26;31.90;13.30
53776;DHT22;44276;49.534;6.378;2022-09-12T14:24:55;31.30;14.00
53776;DHT22;44276;49.534;6.378;2022-09-12T14:27:26;30.80;15.30
53776;DHT22;44276;49.534;6.378;2022-09-12T14:29:59;30.60;14.30
53776;DHT22;44276;49.534;6.378;2022-09-12T14:32:29;30.40;14.70
53776;DHT22;44276;49.534;6.378;2022-09-12T14:35:03;30.30;14.10
53776;DHT22;44276;49.534;6.378;2022-09-12T14:37:34;30.30;14.40
53776;DHT22;44276;49.534;6.378;2022-09-12T14:40:02;30.20;16.40
53776;DHT22;44276;49.534;6.378;2022-09-12T14:42:42;30.00;15.20
53776;DHT22;44276;49.534;6.378;2022-09-12T14:45:12;29.80;15.70
53776;DHT22;44276;49.534;6.378;2022-09-12T14:47:44;29.80;15.90
53776;DHT22;44276;49.534;6.378;2022-09-12T14:50:17;30.00;14.90
53776;DHT22;44276;49.534;6.378;2022-09-12T14:52:53;30.30;14.60
53776;DHT22;44276;49.534;6.378;2022-09-12T14:55:30;30.40;16.60
53776;DHT22;44276;49.534;6.378;2022-09-12T14:58:08;30.20;15.50
53776;DHT22;44276;49.534;6.378;2022-09-12T15:00:51;30.00;14.80
53776;DHT22;44276;49.534;6.378;2022-09-12T15:03:24;30.00;14.40
53776;DHT22;44276;49.534;6.378;2022-09-12T15:05:57;30.20;15.20
53776;DHT22;44276;49.534;6.378;2022-09-12T15:08:27;30.40;15.20
53776;DHT22;44276;49.534;6.378;2022-09-12T15:10:55;30.40;15.90
53776;DHT22;44276;49.534;6.378;2022-09-12T15:13:25;30.20;15.20
53776;DHT22;44276;49.534;6.378;2022-09-12T15:15:54;30.00;14.70
53776;DHT22;44276;49.534;6.378;2022-09-12T15:18:24;29.80;15.80
53776;DHT22;44276;49.534;6.378;2022-09-12T15:21:06;29.60;14.40
53776;DHT22;44276;49.534;6.378;2022-09-12T15:23:38;29.50;15.20
53776;DHT22;44276;49.534;6.378;2022-09-12T15:26:12;29.30;15.60
53776;DHT22;44276;49.534;6.378;2022-09-12T15:28:44;29.00;16.50
53776;DHT22;44276;49.534;6.378;2022-09-12T15:31:15;29.10;16.30
53776;DHT22;44276;49.534;6.378;2022-09-12T15:33:49;29.10;15.50
53776;DHT22;44276;49.534;6.378;2022-09-12T15:36:49;28.90;16.10
53776;DHT22;44276;49.534;6.378;2022-09-12T15:39:21;28.90;16.10
53776;DHT22;44276;49.534;6.378;2022-09-12T15:41:48;28.90;16.50
53776;DHT22;44276;49.534;6.378;2022-09-12T15:44:17;28.80;15.80
53776;DHT22;44276;49.534;6.378;2022-09-12T15:46:45;28.80;15.40
53776;DHT22;44276;49.534;6.378;2022-09-12T15:49:13;28.90;15.40
53776;DHT22;44276;49.534;6.378;2022-09-12T15:51:41;29.10;16.20
53776;DHT22;44276;49.534;6.378;2022-09-12T15:54:09;29.20;16.40
53776;DHT22;44276;49.534;6.378;2022-09-12T15:56:41;28.80;17.30
53776;DHT22;44276;49.534;6.378;2022-09-12T15:59:10;28.60;17.50
53776;DHT22;44276;49.534;6.378;2022-09-12T16:01:39;28.40;16.00
53776;DHT22;44276;49.534;6.378;2022-09-12T16:04:16;28.20;16.60
53776;DHT22;44276;49.534;6.378;2022-09-12T16:06:47;28.10;17.10
53776;DHT22;44276;49.534;6.378;2022-09-12T16:09:15;28.00;17.50
53776;DHT22;44276;49.534;6.378;2022-09-12T16:11:46;27.80;17.70
53776;DHT22;44276;49.534;6.378;2022-09-12T16:14:14;27.60;18.30
53776;DHT22;44276;49.534;6.378;2022-09-12T16:16:43;27.50;16.90
53776;DHT22;44276;49.534;6.378;2022-09-12T16:19:18;27.50;17.40
53776;DHT22;44276;49.534;6.378;2022-09-12T16:21:48;27.40;18.10
53776;DHT22;44276;49.534;6.378;2022-09-12T16:24:16;27.30;18.90
53776;DHT22;44276;49.534;6.378;2022-09-12T16:26:45;27.30;18.00
53776;DHT22;44276;49.534;6.378;2022-09-12T16:29:13;27.20;19.50
53776;DHT22;44276;49.534;6.378;2022-09-12T16:31:41;27.00;18.90
53776;DHT22;44276;49.534;6.378;2022-09-12T16:34:09;27.10;19.60
53776;DHT22;44276;49.534;6.378;2022-09-12T16:36:37;27.10;18.60
53776;DHT22;44276;49.534;6.378;2022-09-12T16:39:05;27.00;18.10
53776;DHT22;44276;49.534;6.378;2022-09-12T16:41:33;26.90;19.60
53776;DHT22;44276;49.534;6.378;2022-09-12T16:44:03;26.90;19.40
53776;DHT22;44276;49.534;6.378;2022-09-12T16:46:30;26.80;20.20
53776;DHT22;44276;49.534;6.378;2022-09-12T16:48:59;26.70;20.00
53776;DHT22;44276;49.534;6.378;2022-09-12T16:51:30;26.60;20.00
53776;DHT22;44276;49.534;6.378;2022-09-12T16:54:01;26.60;20.70
53776;DHT22;44276;49.534;6.378;2022-09-12T16:56:31;26.50;20.90
53776;DHT22;44276;49.534;6.378;2022-09-12T16:59:41;26.40;21.20
53776;DHT22;44276;49.534;6.378;2022-09-12T17:02:11;26.30;21.60
53776;DHT22;44276;49.534;6.378;2022-09-12T17:04:43;26.20;22.10
53776;DHT22;44276;49.534;6.378;2022-09-12T17:07:14;26.10;22.20
53776;DHT22;44276;49.534;6.378;2022-09-12T17:09:42;26.10;22.00
53776;DHT22;44276;49.534;6.378;2022-09-12T17:12:13;26.10;22.10
53776;DHT22;44276;49.534;6.378;2022-09-12T17:14:42;26.10;22.10